createdAt,value
2022-09-20T00:01:59.169Z,8.51
2022-09-20T00:04:28.691Z,8.46
2022-09-20T00:06:57.907Z,8.42
2022-09-20T00:09:27.324Z,8.29
2022-09-20T00:11:56.605Z,8.20
2022-09-20T00:14:25.916Z,8.15
2022-09-20T00:16:55.257Z,8.11
2022-09-20T00:19:24.506Z,8.06
2022-09-20T00:21:53.900Z,8.02
2022-09-20T00:24:23.255Z,8.05
2022-09-20T00:26:52.913Z,8.11
2022-09-20T00:29:22.320Z,8.16
2022-09-20T00:31:51.653Z,8.21
2022-09-20T00:34:39.168Z,8.22
2022-09-20T00:37:08.452Z,8.14
2022-09-20T00:39:37.657Z,8.09
2022-09-20T00:42:09.911Z,8.12
2022-09-20T00:44:57.200Z,8.10
2022-09-20T00:47:50.841Z,8.10
2022-09-20T00:50:35.014Z,8.07
2022-09-20T00:53:32.222Z,8.08
2022-09-20T00:56:22.683Z,8.05
2022-09-20T00:59:21.383Z,8.04
2022-09-20T01:02:03.866Z,8.04
2022-09-20T01:04:34.385Z,7.95
2022-09-20T01:07:07.195Z,7.89
2022-09-20T01:09:36.618Z,7.84
2022-09-20T01:12:14.772Z,7.84
2022-09-20T01:14:47.307Z,7.77
2022-09-20T01:17:20.321Z,7.73
2022-09-20T01:20:15.690Z,7.69
2022-09-20T01:23:08.157Z,7.64
2022-09-20T01:26:20.082Z,7.57
2022-09-20T01:28:53.268Z,7.53
2022-09-20T01:31:34.980Z,7.51
2022-09-20T01:34:16.832Z,7.48
2022-09-20T01:37:12.897Z,7.47
2022-09-20T01:40:05.972Z,7.43
2022-09-20T01:42:43.659Z,7.39
2022-09-20T01:45:33.554Z,7.35
2022-09-20T01:48:41.351Z,7.32
2022-09-20T01:51:56.467Z,7.26
2022-09-20T01:55:08.209Z,7.20
2022-09-20T01:57:42.935Z,7.17
2022-09-20T02:00:27.267Z,7.15
2022-09-20T02:03:14.489Z,7.09
2022-09-20T02:06:08.469Z,7.07
2022-09-20T02:09:17.189Z,7.08
2022-09-20T02:12:16.266Z,7.09
2022-09-20T02:15:40.256Z,7.07
2022-09-20T02:18:45.716Z,7.05
2022-09-20T02:21:37.164Z,7.03
2022-09-20T02:24:37.538Z,7.00
2022-09-20T02:27:28.001Z,6.97
2022-09-20T02:30:26.510Z,6.97
2022-09-20T02:33:31.108Z,7.00
2022-09-20T02:36:24.305Z,7.02
2022-09-20T02:39:17.834Z,7.00
2022-09-20T02:42:20.665Z,6.95
2022-09-20T02:45:17.201Z,6.80
2022-09-20T02:47:47.011Z,6.71
2022-09-20T02:50:35.001Z,6.67
2022-09-20T02:53:47.381Z,6.56
2022-09-20T02:56:37.688Z,6.52
2022-09-20T03:00:11.139Z,6.51
2022-09-20T03:03:13.328Z,6.58
2022-09-20T03:06:05.579Z,6.62
2022-09-20T03:09:03.360Z,6.64
2022-09-20T03:12:14.700Z,6.66
2022-09-20T03:15:06.956Z,6.66
2022-09-20T03:18:01.848Z,6.64
2022-09-20T03:20:55.165Z,6.57
2022-09-20T03:24:29.646Z,6.53
2022-09-20T03:27:09.855Z,6.49
2022-09-20T03:30:17.256Z,6.49
2022-09-20T03:33:08.287Z,6.53
2022-09-20T03:36:00.732Z,6.58
2022-09-20T03:38:49.461Z,6.59
2022-09-20T03:41:55.677Z,6.59
2022-09-20T03:44:59.937Z,6.58
2022-09-20T03:47:55.401Z,6.57
2022-09-20T03:51:14.488Z,6.55
2022-09-20T03:54:35.007Z,6.47
2022-09-20T03:57:31.294Z,6.44
2022-09-20T04:00:28.140Z,6.43
2022-09-20T04:03:17.091Z,6.46
2022-09-20T04:06:29.301Z,6.51
2022-09-20T04:09:28.456Z,6.52
2022-09-20T04:12:21.492Z,6.51
2022-09-20T04:15:33.971Z,6.49
2022-09-20T04:18:25.406Z,6.47
2022-09-20T04:21:18.711Z,6.45
2022-09-20T04:24:12.761Z,6.43
2022-09-20T04:27:10.833Z,6.41
2022-09-20T04:30:18.869Z,6.39
2022-09-20T04:33:05.045Z,6.40
2022-09-20T04:36:22.675Z,6.38
2022-09-20T04:39:14.285Z,6.33
2022-09-20T04:42:34.275Z,6.28
2022-09-20T04:45:40.159Z,6.26
2022-09-20T04:48:18.137Z,6.21
2022-09-20T04:51:28.382Z,6.20
2022-09-20T04:54:14.373Z,6.20
2022-09-20T04:56:46.526Z,6.21
2022-09-20T05:00:10.109Z,6.23
2022-09-20T05:03:17.059Z,6.26
2022-09-20T05:06:17.923Z,6.24
2022-09-20T05:09:31.242Z,6.24
2022-09-20T05:12:28.288Z,6.22
2022-09-20T05:15:53.032Z,6.19
2022-09-20T05:18:43.796Z,6.15
2022-09-20T05:21:49.759Z,6.07
2022-09-20T05:24:49.213Z,5.99
2022-09-20T05:27:52.900Z,5.89
2022-09-20T05:30:57.226Z,5.78
2022-09-20T05:33:41.206Z,5.81
2022-09-20T05:36:34.852Z,5.85
2022-09-20T05:39:34.816Z,5.88
2022-09-20T05:42:33.824Z,5.85
2022-09-20T05:45:33.759Z,5.80
2022-09-20T05:49:05.647Z,5.76
2022-09-20T05:52:01.823Z,5.66
2022-09-20T05:54:48.917Z,5.59
2022-09-20T05:57:50.099Z,5.51
2022-09-20T06:00:28.719Z,5.48
2022-09-20T06:03:16.898Z,5.43
2022-09-20T06:06:11.871Z,5.43
2022-09-20T06:09:21.484Z,5.43
2022-09-20T06:12:06.849Z,5.33
2022-09-20T06:15:13.748Z,5.27
2022-09-20T06:17:59.557Z,5.18
2022-09-20T06:20:47.047Z,5.08
2022-09-20T06:23:16.363Z,5.03
2022-09-20T06:26:08.846Z,5.00
2022-09-20T06:28:47.234Z,4.96
2022-09-20T06:31:16.671Z,4.93
2022-09-20T06:34:01.842Z,4.90
2022-09-20T06:36:59.155Z,4.85
2022-09-20T06:40:21.955Z,4.83
2022-09-20T06:42:51.227Z,4.79
2022-09-20T06:45:20.573Z,4.75
2022-09-20T06:47:49.612Z,4.68
2022-09-20T06:50:19.709Z,4.66
2022-09-20T06:52:48.987Z,4.65
2022-09-20T06:55:30.891Z,4.65
2022-09-20T06:58:00.171Z,4.62
2022-09-20T07:00:29.326Z,4.61
2022-09-20T07:02:58.669Z,4.59
2022-09-20T07:05:28.169Z,4.59
2022-09-20T07:08:02.531Z,4.59
2022-09-20T07:10:32.188Z,4.54
2022-09-20T07:13:03.841Z,4.53
2022-09-20T07:15:37.223Z,4.49
2022-09-20T07:18:07.206Z,4.47
2022-09-20T07:20:36.575Z,4.47
2022-09-20T07:23:06.048Z,4.49
2022-09-20T07:25:35.398Z,4.51
2022-09-20T07:28:04.806Z,4.54
2022-09-20T07:30:34.061Z,4.59
2022-09-20T07:33:03.648Z,4.64
2022-09-20T07:35:33.107Z,4.65
2022-09-20T07:38:03.701Z,4.65
2022-09-20T07:40:33.048Z,4.61
2022-09-20T07:43:02.467Z,4.59
2022-09-20T07:45:32.260Z,4.57
2022-09-20T07:48:06.313Z,4.54
2022-09-20T07:50:36.624Z,4.49
2022-09-20T07:53:06.165Z,4.48
2022-09-20T07:55:36.965Z,4.46
2022-09-20T07:58:05.955Z,4.46
2022-09-20T08:00:35.386Z,4.46
2022-09-20T08:03:07.198Z,4.44
2022-09-20T08:05:36.850Z,4.42
2022-09-20T08:08:05.793Z,4.40
2022-09-20T08:10:35.101Z,4.35
2022-09-20T08:15:53.685Z,4.18
2022-09-20T08:18:23.454Z,4.11
2022-09-20T08:20:53.357Z,4.06
2022-09-20T08:23:24.246Z,4.01
2022-09-20T08:25:53.535Z,3.99
2022-09-20T08:28:22.678Z,3.98
2022-09-20T08:30:51.945Z,3.97
2022-09-20T08:33:21.128Z,3.96
2022-09-20T08:35:51.285Z,3.95
2022-09-20T08:41:50.467Z,3.96
2022-09-20T08:44:36.094Z,3.94
2022-09-20T08:47:30.837Z,3.89
2022-09-20T08:50:09.065Z,3.78
2022-09-20T08:52:43.372Z,3.69
2022-09-20T08:55:37.016Z,3.63
2022-09-20T08:58:09.005Z,3.55
2022-09-20T09:00:40.708Z,3.54
2022-09-20T09:03:17.902Z,3.49
2022-09-20T09:06:02.274Z,3.45
2022-09-20T09:08:38.222Z,3.41
2022-09-20T09:11:18.583Z,3.36
2022-09-20T09:14:56.177Z,3.32
2022-09-20T09:17:31.669Z,3.23
2022-09-20T09:20:16.186Z,3.20
2022-09-20T09:22:50.185Z,3.17
2022-09-20T09:25:35.494Z,3.16
2022-09-20T09:28:09.822Z,3.15
2022-09-20T09:30:45.697Z,3.16
2022-09-20T09:33:29.926Z,3.21
2022-09-20T09:36:21.286Z,3.30
2022-09-20T09:38:50.626Z,3.35
2022-09-20T09:41:37.004Z,3.40
2022-09-20T09:44:24.105Z,3.44
2022-09-20T09:46:57.554Z,3.46
2022-09-20T09:50:03.705Z,3.47
2022-09-20T09:52:37.385Z,3.47
2022-09-20T09:55:06.905Z,3.48
2022-09-20T09:57:41.342Z,3.46
2022-09-20T10:00:22.468Z,3.38
2022-09-20T10:03:19.741Z,3.33
2022-09-20T10:06:23.168Z,3.29
2022-09-20T10:09:11.517Z,3.30
2022-09-20T10:12:14.246Z,3.29
2022-09-20T10:15:15.576Z,3.28
2022-09-20T10:18:17.581Z,3.24
2022-09-20T10:21:14.747Z,3.23
2022-09-20T10:24:31.329Z,3.20
2022-09-20T10:27:37.491Z,3.12
2022-09-20T10:30:43.339Z,3.09
2022-09-20T10:33:50.105Z,3.08
2022-09-20T10:36:28.804Z,3.10
2022-09-20T10:39:28.030Z,2.99
2022-09-20T10:42:55.622Z,2.98
2022-09-20T10:46:32.015Z,2.99
2022-09-20T10:49:26.776Z,3.04
2022-09-20T10:52:32.705Z,3.06
2022-09-20T10:55:22.917Z,3.01
2022-09-20T10:58:41.430Z,2.99
2022-09-20T11:01:26.010Z,2.94
2022-09-20T11:04:36.468Z,2.92
2022-09-20T11:07:51.525Z,2.89
2022-09-20T11:10:51.588Z,2.88
2022-09-20T11:13:46.819Z,2.79
2022-09-20T11:16:47.355Z,2.75
2022-09-20T11:19:28.275Z,2.73
2022-09-20T11:22:23.072Z,2.71
2022-09-20T11:25:20.837Z,2.75
2022-09-20T11:28:10.483Z,2.82
2022-09-20T11:30:58.425Z,2.85
2022-09-20T11:33:41.452Z,2.85
2022-09-20T11:36:20.848Z,2.83
2022-09-20T11:39:06.693Z,2.83
2022-09-20T11:41:36.519Z,2.81
2022-09-20T11:44:16.875Z,2.81
2022-09-20T11:47:04.522Z,2.74
2022-09-20T11:50:15.606Z,2.66
2022-09-20T11:53:16.463Z,2.68
2022-09-20T11:56:10.157Z,2.71
2022-09-20T11:59:08.382Z,2.77
2022-09-20T12:01:42.702Z,2.81
2022-09-20T12:04:36.637Z,2.80
2022-09-20T12:07:13.433Z,2.79
2022-09-20T12:10:01.795Z,2.77
2022-09-20T12:12:49.687Z,2.71
2022-09-20T12:15:41.243Z,2.71
2022-09-20T12:18:47.157Z,2.72
2022-09-20T12:21:22.057Z,2.70
2022-09-20T12:24:00.292Z,2.68
2022-09-20T12:26:29.503Z,2.71
2022-09-20T12:29:27.906Z,2.75
2022-09-20T12:32:01.898Z,2.74
2022-09-20T12:34:37.731Z,2.72
2022-09-20T12:37:11.523Z,2.73
2022-09-20T12:39:51.643Z,2.76
2022-09-20T12:42:22.616Z,2.78
2022-09-20T12:44:51.713Z,2.78
2022-09-20T12:47:29.622Z,2.75
2022-09-20T12:50:20.931Z,2.73
2022-09-20T12:52:58.410Z,2.70
2022-09-20T12:55:57.316Z,2.67
2022-09-20T12:58:41.255Z,2.70
2022-09-20T13:01:14.118Z,2.74
2022-09-20T13:03:48.010Z,2.73
2022-09-20T13:06:18.572Z,2.77
2022-09-20T13:09:02.797Z,2.78
2022-09-20T13:11:50.138Z,2.77
2022-09-20T13:14:35.930Z,2.79
2022-09-20T13:17:34.420Z,2.74
2022-09-20T13:20:04.363Z,2.68
2022-09-20T13:22:46.434Z,2.60
2022-09-20T13:25:21.423Z,2.50
2022-09-20T13:27:58.965Z,2.42
2022-09-20T13:30:33.879Z,2.43
2022-09-20T13:33:26.287Z,2.39
2022-09-20T13:35:59.751Z,2.39
2022-09-20T13:38:33.350Z,2.41
2022-09-20T13:41:14.043Z,2.40
2022-09-20T13:43:44.896Z,2.35
2022-09-20T13:46:18.778Z,2.25
2022-09-20T13:49:15.902Z,2.22
2022-09-20T13:51:45.514Z,2.23
2022-09-20T13:54:34.269Z,2.16
2022-09-20T13:57:23.726Z,2.14
2022-09-20T13:59:53.830Z,2.21
2022-09-20T14:02:35.421Z,2.29
2022-09-20T14:05:08.515Z,2.40
2022-09-20T14:07:38.078Z,2.51
2022-09-20T14:10:32.927Z,2.60
2022-09-20T14:13:08.187Z,2.63
2022-09-20T14:15:47.694Z,2.62
2022-09-20T14:18:22.554Z,2.53
2022-09-20T14:20:52.616Z,2.55
2022-09-20T14:23:28.484Z,2.56
2022-09-20T14:26:30.251Z,2.59
2022-09-20T14:29:35.230Z,2.61
2022-09-20T14:32:18.942Z,2.68
2022-09-20T14:35:22.053Z,2.80
2022-09-20T14:38:21.438Z,2.90
2022-09-20T14:40:52.847Z,3.07
2022-09-20T14:43:37.694Z,3.16
2022-09-20T14:46:18.736Z,3.24
2022-09-20T14:48:47.864Z,3.31
2022-09-20T14:51:19.884Z,3.36
2022-09-20T14:54:14.774Z,3.43
2022-09-20T14:56:51.961Z,3.52
2022-09-20T14:59:22.107Z,3.56
2022-09-20T15:02:03.117Z,3.52
2022-09-20T15:04:34.148Z,3.55
2022-09-20T15:07:11.450Z,3.62
2022-09-20T15:09:40.952Z,3.67
2022-09-20T15:12:20.600Z,3.74
2022-09-20T15:14:50.701Z,3.81
2022-09-20T15:17:22.645Z,3.80
2022-09-20T15:19:52.133Z,3.83
2022-09-20T15:22:21.657Z,3.91
2022-09-20T15:24:50.838Z,3.92
2022-09-20T15:27:20.226Z,3.89
2022-09-20T15:29:49.739Z,3.93
2022-09-20T15:32:18.695Z,3.96
2022-09-20T15:34:51.031Z,4.00
2022-09-20T15:37:20.030Z,4.04
2022-09-20T15:39:50.616Z,4.06
2022-09-20T15:42:22.306Z,4.02
2022-09-20T15:44:54.738Z,4.03
2022-09-20T15:47:23.925Z,4.11
2022-09-20T15:49:53.925Z,4.20
2022-09-20T15:52:26.513Z,4.27
2022-09-20T15:55:00.570Z,4.32
2022-09-20T15:57:30.235Z,4.34
2022-09-20T16:00:00.487Z,4.39
2022-09-20T16:02:30.376Z,4.43
2022-09-20T16:05:00.739Z,4.45
2022-09-20T16:07:30.413Z,4.48
2022-09-20T16:09:59.779Z,4.47
2022-09-20T16:12:29.102Z,4.43
2022-09-20T16:14:58.496Z,4.42
2022-09-20T16:17:47.564Z,4.48
2022-09-20T16:20:16.661Z,4.53
2022-09-20T16:22:45.714Z,4.65
2022-09-20T16:25:14.994Z,4.74
2022-09-20T16:27:44.332Z,4.83
2022-09-20T16:30:15.158Z,4.83
2022-09-20T16:32:44.280Z,4.86
2022-09-20T16:35:13.803Z,4.91
2022-09-20T16:37:43.359Z,4.97
2022-09-20T16:40:15.185Z,5.01
2022-09-20T16:42:51.488Z,5.00
2022-09-20T16:45:22.417Z,5.04
2022-09-20T16:47:51.516Z,5.11
2022-09-20T16:50:20.971Z,5.24
2022-09-20T16:52:51.046Z,5.32
2022-09-20T16:55:21.724Z,5.39
2022-09-20T16:57:53.945Z,5.49
2022-09-20T17:00:23.147Z,5.54
2022-09-20T17:02:53.343Z,5.58
2022-09-20T17:05:22.862Z,5.65
2022-09-20T17:07:52.218Z,5.72
2022-09-20T17:10:22.478Z,5.82
2022-09-20T17:12:58.520Z,5.93
2022-09-20T17:15:27.632Z,6.01
2022-09-20T17:17:58.862Z,6.05
2022-09-20T17:20:29.498Z,6.09
2022-09-20T17:22:59.419Z,6.11
2022-09-20T17:25:31.244Z,6.18
2022-09-20T17:28:00.480Z,6.27
2022-09-20T17:30:31.661Z,6.36
2022-09-20T17:33:01.705Z,6.45
2022-09-20T17:35:31.018Z,6.53
2022-09-20T17:38:00.402Z,6.60
2022-09-20T17:40:29.576Z,6.60
2022-09-20T17:42:58.833Z,6.61
2022-09-20T17:45:28.162Z,6.63
2022-09-20T17:47:59.792Z,6.62
2022-09-20T17:50:28.890Z,6.62
2022-09-20T17:52:58.158Z,6.56
2022-09-20T17:55:29.397Z,6.48
2022-09-20T17:57:58.751Z,6.41
2022-09-20T18:00:27.918Z,6.39
2022-09-20T18:02:59.560Z,6.34
2022-09-20T18:05:30.912Z,6.29
2022-09-20T18:08:00.412Z,6.21
2022-09-20T18:10:32.703Z,6.17
2022-09-20T18:13:05.877Z,6.10
2022-09-20T18:15:35.362Z,6.02
2022-09-20T18:18:04.578Z,6.00
2022-09-20T18:20:35.078Z,6.02
2022-09-20T18:23:05.326Z,6.06
2022-09-20T18:25:56.816Z,6.11
2022-09-20T18:28:26.231Z,6.19
2022-09-20T18:31:04.117Z,6.22
2022-09-20T18:33:34.165Z,6.22
2022-09-20T18:36:08.169Z,6.21
2022-09-20T18:38:38.736Z,6.20
2022-09-20T18:41:08.053Z,6.22
2022-09-20T18:43:37.292Z,6.26
2022-09-20T18:46:06.632Z,6.31
2022-09-20T18:48:36.084Z,6.35
2022-09-20T18:51:07.601Z,6.41
2022-09-20T18:53:40.022Z,6.48
2022-09-20T18:56:30.885Z,6.51
2022-09-20T18:59:24.268Z,6.59
2022-09-20T19:01:56.598Z,6.67
2022-09-20T19:05:07.896Z,6.68
2022-09-20T19:08:12.366Z,6.70
2022-09-20T19:11:02.303Z,6.73
2022-09-20T19:13:43.157Z,6.78
2022-09-20T19:16:31.999Z,6.84
2022-09-20T19:19:35.067Z,6.92
2022-09-20T19:23:03.372Z,7.01
2022-09-20T19:25:45.337Z,7.12
2022-09-20T19:28:17.350Z,7.15
2022-09-20T19:30:49.343Z,7.15
2022-09-20T19:33:22.936Z,7.18
2022-09-20T19:35:53.756Z,7.23
2022-09-20T19:38:32.505Z,7.29
2022-09-20T19:41:40.692Z,7.34
2022-09-20T19:44:41.759Z,7.39
2022-09-20T19:47:27.111Z,7.48
2022-09-20T19:50:05.682Z,7.50
2022-09-20T19:52:35.771Z,7.51
2022-09-20T19:55:05.660Z,7.56
2022-09-20T19:57:47.939Z,7.62
2022-09-20T20:00:21.578Z,7.67
2022-09-20T20:02:51.785Z,7.70
2022-09-20T20:05:28.511Z,7.73
2022-09-20T20:08:16.796Z,7.76
2022-09-20T20:11:21.198Z,7.80
2022-09-20T20:14:23.679Z,7.95
2022-09-20T20:17:27.449Z,8.09
2022-09-20T20:20:27.605Z,8.11
2022-09-20T20:23:52.904Z,8.11
2022-09-20T20:26:26.144Z,8.09
2022-09-20T20:28:55.700Z,8.15
2022-09-20T20:31:24.872Z,8.24
2022-09-20T20:33:58.154Z,8.26
2022-09-20T20:36:27.583Z,8.30
2022-09-20T20:38:56.699Z,8.30
2022-09-20T20:41:26.026Z,8.33
2022-09-20T20:43:58.608Z,8.42
2022-09-20T20:46:28.049Z,8.48
2022-09-20T20:48:57.880Z,8.56
2022-09-20T20:51:28.355Z,8.64
2022-09-20T20:53:59.380Z,8.67
2022-09-20T20:56:31.525Z,8.74
2022-09-20T20:59:01.771Z,8.83
2022-09-20T21:01:47.033Z,8.93
2022-09-20T21:04:17.313Z,9.12
2022-09-20T21:06:46.819Z,9.21
2022-09-20T21:09:16.172Z,9.23
2022-09-20T21:11:45.658Z,9.29
2022-09-20T21:14:15.012Z,9.34
2022-09-20T21:16:46.552Z,9.35
2022-09-20T21:19:16.667Z,9.43
2022-09-20T21:21:48.932Z,9.56
2022-09-20T21:24:18.700Z,9.62
2022-09-20T21:26:48.663Z,9.70
2022-09-20T21:29:18.765Z,9.76
2022-09-20T21:31:48.779Z,9.80
2022-09-20T21:34:18.531Z,9.84
2022-09-20T21:36:47.541Z,9.94
2022-09-20T21:39:16.676Z,10.01
2022-09-20T21:41:48.016Z,10.00
2022-09-20T21:44:18.055Z,10.01
2022-09-20T21:46:49.367Z,10.03
2022-09-20T21:49:19.078Z,10.05
2022-09-20T21:51:48.431Z,10.06
2022-09-20T21:54:17.633Z,10.05
2022-09-20T21:56:47.034Z,10.06
2022-09-20T21:59:16.409Z,10.10
2022-09-20T22:01:46.066Z,10.13
2022-09-20T22:04:16.241Z,10.13
2022-09-20T22:06:46.568Z,10.14
2022-09-20T22:09:18.952Z,10.16
2022-09-20T22:11:50.425Z,10.18
2022-09-20T22:14:21.268Z,10.24
2022-09-20T22:16:52.360Z,10.30
2022-09-20T22:19:22.049Z,10.32
2022-09-20T22:21:53.013Z,10.41
2022-09-20T22:24:22.459Z,10.45
2022-09-20T22:26:54.640Z,10.46
2022-09-20T22:29:23.998Z,10.51
2022-09-20T22:31:53.225Z,10.53
2022-09-20T22:34:26.013Z,10.51
2022-09-20T22:36:55.181Z,10.52
2022-09-20T22:39:24.589Z,10.57
2022-09-20T22:41:53.965Z,10.63
2022-09-20T22:44:23.385Z,10.65
2022-09-20T22:46:52.568Z,10.64
2022-09-20T22:49:21.962Z,10.64
2022-09-20T22:51:51.223Z,10.65
2022-09-20T22:54:21.549Z,10.65
2022-09-20T22:56:50.672Z,10.65
2022-09-20T22:59:19.965Z,10.66
2022-09-20T23:01:50.183Z,10.65
2022-09-20T23:04:24.542Z,10.66
2022-09-20T23:06:58.273Z,10.66
2022-09-20T23:09:29.306Z,10.69
2022-09-20T23:11:58.711Z,10.72
2022-09-20T23:14:27.968Z,10.73
2022-09-20T23:16:57.374Z,10.74
2022-09-20T23:19:27.584Z,10.77
2022-09-20T23:21:56.785Z,10.79
2022-09-20T23:24:25.986Z,10.78
2022-09-20T23:26:55.297Z,10.79
2022-09-20T23:29:26.670Z,10.79
2022-09-20T23:31:56.294Z,10.79
2022-09-20T23:34:25.916Z,10.82
2022-09-20T23:36:55.475Z,10.84
2022-09-20T23:39:25.005Z,10.86
2022-09-20T23:41:54.389Z,10.89
2022-09-20T23:44:23.469Z,10.91
2022-09-20T23:46:52.697Z,10.96
2022-09-20T23:49:21.966Z,10.97
2022-09-20T23:51:51.252Z,10.94
2022-09-20T23:54:20.769Z,10.90
2022-09-20T23:56:50.938Z,10.88
2022-09-20T23:59:22.705Z,10.89
